Time;durP1;ratioP1;P1;durP2;ratioP2;P2;SDS_P1;SDS_P2;PMS_P1;PMS_P2;Temp;Humidity;BMP_temperature;BMP_pressure;BME280_temperature;BME280_humidity;BME280_pressure;Samples;Min_cycle;Max_cycle;Signal;HPM_P1;HPM_P2
2022/04/23 00:00:29;;;;;;;;;29.60;24.60;;;;;13.00;51.10;97985.97;6341391;27;96665;-72
2022/04/23 00:03:32;;;;;;;;;22.00;20.00;;;;;12.97;51.28;97981.09;6312157;27;97068;-73
2022/04/23 00:06:36;;;;;;;;;22.20;20.20;;;;;12.75;51.51;97956.84;6343140;27;96490;-73
2022/04/23 00:09:40;;;;;;;;;25.00;21.00;;;;;12.88;51.14;97975.34;6333059;27;97446;-72
2022/04/23 00:12:46;;;;;;;;;27.20;25.20;;;;;13.03;51.17;97977.34;6324916;27;96719;-73
2022/04/23 00:15:49;;;;;;;;;23.20;20.80;;;;;13.02;51.04;97981.94;6321332;27;96570;-77
2022/04/23 00:18:53;;;;;;;;;23.00;22.00;;;;;13.07;51.09;97977.63;6335372;27;96751;-77
2022/04/23 00:21:56;;;;;;;;;25.00;21.00;;;;;13.00;50.95;97977.84;6307299;27;97113;-75
2022/04/23 00:25:01;;;;;;;;;25.40;22.00;;;;;13.05;51.27;97971.69;6322188;27;97420;-72
2022/04/23 00:28:05;;;;;;;;;23.00;21.00;;;;;12.98;51.26;97969.19;6279320;27;97265;-73
2022/04/23 00:31:08;;;;;;;;;25.20;21.20;;;;;12.89;51.03;97938.28;6322858;27;97441;-71
2022/04/23 00:34:12;;;;;;;;;26.60;23.60;;;;;12.95;50.86;97954.28;6306153;27;99812;-74
2022/04/23 00:37:15;;;;;;;;;25.40;23.00;;;;;13.10;50.64;97964.41;6321533;27;99497;-74
2022/04/23 00:40:21;;;;;;;;;25.40;22.00;;;;;13.08;50.50;97960.34;6303813;27;100109;-74
2022/04/23 00:43:28;;;;;;;;;26.80;24.00;;;;;13.05;50.33;97952.75;6279767;27;99415;-75
2022/04/23 00:46:31;;;;;;;;;28.50;25.00;;;;;12.99;50.63;97963.53;6316106;27;96607;-71
2022/04/23 00:49:35;;;;;;;;;26.60;23.00;;;;;13.00;50.49;97956.22;6312849;27;98511;-72
2022/04/23 00:52:38;;;;;;;;;27.00;23.40;;;;;13.03;50.59;97961.13;6304781;27;98321;-70
2022/04/23 00:55:44;;;;;;;;;23.40;20.60;;;;;13.06;50.33;97960.59;6323126;27;96507;-76
2022/04/23 00:58:47;;;;;;;;;25.40;22.00;;;;;13.03;50.37;97963.81;6297539;27;97141;-75
2022/04/23 01:01:53;;;;;;;;;25.00;22.40;;;;;12.99;50.19;97960.81;6326946;27;96721;-71
2022/04/23 01:04:56;;;;;;;;;26.40;23.20;;;;;13.00;50.21;97958.91;6322485;27;98357;-78
2022/04/23 01:08:02;;;;;;;;;26.80;22.80;;;;;12.92;50.28;97965.63;6286155;27;99766;-75
2022/04/23 01:11:07;;;;;;;;;25.00;22.40;;;;;12.84;50.34;97970.72;6297335;27;99452;-73
2022/04/23 01:14:11;;;;;;;;;26.25;23.25;;;;;12.72;50.50;97965.47;6309702;27;97116;-74
2022/04/23 01:17:14;;;;;;;;;24.40;22.40;;;;;12.40;50.59;97934.91;6296662;27;97305;-72
2022/04/23 01:20:20;;;;;;;;;24.00;22.00;;;;;12.70;50.52;97967.63;6297197;27;98726;-74
2022/04/23 01:23:23;;;;;;;;;26.00;23.00;;;;;12.74;50.16;97967.91;6321570;27;96769;-76
2022/04/23 01:26:29;;;;;;;;;25.20;20.20;;;;;12.67;50.30;97964.59;6324579;27;97910;-76
2022/04/23 01:29:32;;;;;;;;;21.80;19.20;;;;;12.64;50.32;97957.00;6316249;27;97041;-73
2022/04/23 01:32:35;;;;;;;;;27.00;23.00;;;;;12.56;50.19;97948.28;6313343;27;96679;-75
2022/04/23 01:35:40;;;;;;;;;23.00;20.00;;;;;12.78;50.12;97963.63;6298769;27;98366;-72
2022/04/23 01:38:44;;;;;;;;;21.00;19.00;;;;;12.63;49.70;97939.16;6313619;27;98611;-71
2022/04/23 01:41:48;;;;;;;;;22.40;20.00;;;;;12.82;49.67;97956.63;6315450;27;98166;-74
2022/04/23 01:44:52;;;;;;;;;24.80;21.20;;;;;12.82;49.66;97973.66;6329869;27;97502;-75
2022/04/23 01:47:56;;;;;;;;;24.00;19.80;;;;;12.88;49.59;97963.72;6321598;27;96529;-76
2022/04/23 01:51:01;;;;;;;;;21.60;18.60;;;;;12.68;49.64;97937.31;6333566;27;96576;-72
2022/04/23 01:54:05;;;;;;;;;22.00;19.75;;;;;12.93;49.62;97969.16;6309856;27;97068;-73
2022/04/23 01:57:09;;;;;;;;;22.00;17.60;;;;;12.96;49.20;97963.22;6295944;27;98327;-72
2022/04/23 02:00:14;;;;;;;;;17.25;16.00;;;;;12.99;49.20;97958.13;6299521;27;98796;-71
2022/04/23 02:03:17;;;;;;;;;18.75;16.00;;;;;12.95;48.92;97954.28;6315498;27;97476;-75
2022/04/23 02:06:22;;;;;;;;;20.00;17.60;;;;;13.07;48.63;97964.94;6330785;27;96930;-71
2022/04/23 02:09:25;;;;;;;;;21.00;18.00;;;;;13.07;48.70;97962.22;6296654;27;99187;-72
2022/04/23 02:12:29;;;;;;;;;21.00;17.40;;;;;13.09;48.44;97970.09;6326712;27;96713;-75
2022/04/23 02:15:32;;;;;;;;;20.60;17.00;;;;;13.09;48.62;97967.38;6316524;27;97581;-72
2022/04/23 02:18:38;;;;;;;;;19.60;17.00;;;;;13.07;48.60;97966.81;6317673;27;97413;-75
2022/04/23 02:21:43;;;;;;;;;20.80;18.00;;;;;13.00;48.30;97957.03;6323931;27;97551;-72
2022/04/23 02:24:46;;;;;;;;;18.60;17.40;;;;;13.11;48.28;97970.63;6315095;27;99899;-74
2022/04/23 02:27:50;;;;;;;;;17.80;17.00;;;;;13.11;48.19;97967.91;6321853;27;97470;-76
2022/04/23 02:30:54;;;;;;;;;23.60;21.20;;;;;13.09;48.17;97972.81;6276943;27;98072;-73
2022/04/23 02:33:57;;;;;;;;;18.60;17.00;;;;;13.06;48.25;97976.00;6299227;27;99472;-76
2022/04/23 02:37:02;;;;;;;;;20.00;17.00;;;;;13.02;48.34;97983.84;6300159;27;97792;-71
2022/04/23 02:40:08;;;;;;;;;16.00;13.25;;;;;13.00;48.32;97983.25;6334328;27;97471;-72
2022/04/23 02:43:12;;;;;;;;;20.20;17.20;;;;;12.93;48.09;97978.09;6316057;27;96793;-74
2022/04/23 02:46:16;;;;;;;;;19.60;18.00;;;;;12.79;48.21;97966.06;6350456;27;97066;-74
2022/04/23 02:49:19;;;;;;;;;17.75;16.75;;;;;12.80;48.28;97983.13;6318013;27;98408;-72
2022/04/23 02:52:24;;;;;;;;;21.20;19.00;;;;;12.73;48.52;97983.31;6336546;27;97278;-75
2022/04/23 02:55:30;;;;;;;;;19.60;18.00;;;;;12.70;48.54;97988.44;6318381;27;97860;-71
2022/04/23 02:58:33;;;;;;;;;18.80;16.80;;;;;12.63;48.72;97988.66;6313519;27;99872;-71
2022/04/23 03:01:37;;;;;;;;;22.00;17.00;;;;;12.58;48.73;97986.72;6308302;27;98056;-76
2022/04/23 03:04:40;;;;;;;;;16.75;15.75;;;;;12.55;48.93;97992.66;6330987;27;97069;-72
2022/04/23 03:07:45;;;;;;;;;19.80;15.80;;;;;12.51;48.88;97998.81;6313969;27;97132;-72
2022/04/23 03:10:49;;;;;;;;;21.20;18.00;;;;;12.42;48.97;97984.09;6316720;27;98440;-73
2022/04/23 03:13:52;;;;;;;;;17.00;16.00;;;;;12.44;48.94;97992.78;6297462;27;96574;-72
2022/04/23 03:16:55;;;;;;;;;17.00;15.00;;;;;12.43;49.05;98001.97;6320904;27;97376;-73
2022/04/23 03:19:59;;;;;;;;;20.50;18.00;;;;;12.42;49.18;98000.31;6311847;27;100066;-72
2022/04/23 03:23:04;;;;;;;;;20.00;18.00;;;;;12.37;48.93;98011.09;6297563;27;96687;-72
2022/04/23 03:26:07;;;;;;;;;20.00;18.00;;;;;12.36;49.18;98004.88;6312017;27;97080;-73
2022/04/23 03:29:13;;;;;;;;;20.20;18.20;;;;;12.35;49.05;98005.94;6280262;27;99915;-73
2022/04/23 03:32:17;;;;;;;;;19.40;18.00;;;;;12.30;49.16;98007.78;6295722;27;97776;-75
2022/04/23 03:35:20;;;;;;;;;21.00;18.60;;;;;12.24;49.12;98012.31;6297572;27;99315;-72
2022/04/23 03:38:25;;;;;;;;;19.00;17.40;;;;;12.23;49.31;98010.66;6319285;27;97424;-72
2022/04/23 03:41:29;;;;;;;;;19.00;17.00;;;;;12.20;49.09;98013.88;6294017;27;97138;-72
2022/04/23 03:44:32;;;;;;;;;23.80;19.60;;;;;12.14;49.36;98017.59;6323595;27;97044;-73
2022/04/23 03:47:36;;;;;;;;;21.40;19.40;;;;;12.09;48.98;98023.75;6310654;27;96839;-72
2022/04/23 03:50:40;;;;;;;;;17.80;16.80;;;;;12.10;49.44;98013.78;6338783;27;97361;-75
2022/04/23 03:53:46;;;;;;;;;21.50;19.50;;;;;12.08;49.40;98014.00;6332936;27;97482;-73
2022/04/23 03:56:50;;;;;;;;;22.60;20.60;;;;;12.05;49.57;98011.81;6316787;27;97560;-73
2022/04/23 03:59:53;;;;;;;;;21.60;18.00;;;;;12.01;49.45;98018.81;6329981;27;97712;-73
2022/04/23 04:02:56;;;;;;;;;21.00;18.00;;;;;12.04;49.51;98020.19;6284787;27;99230;-72
2022/04/23 04:06:00;;;;;;;;;20.40;18.40;;;;;11.99;49.32;98014.72;6331344;27;97465;-73
2022/04/23 04:09:05;;;;;;;;;18.60;16.80;;;;;12.00;49.66;98029.84;6326445;27;97502;-75
2022/04/23 04:12:10;;;;;;;;;20.00;18.00;;;;;12.01;49.64;98013.41;6318126;27;97715;-74
2022/04/23 04:15:20;;;;;;;;;18.00;16.75;;;;;12.06;49.92;98026.16;6317050;27;98788;-72
2022/04/23 04:18:24;;;;;;;;;20.00;18.00;;;;;12.13;49.74;98021.34;6295182;27;97095;-73
2022/04/23 04:21:29;;;;;;;;;17.80;16.20;;;;;12.18;49.63;98034.94;6326082;27;96895;-73
2022/04/23 04:24:34;;;;;;;;;22.00;18.00;;;;;12.05;49.74;98017.22;6329529;27;98098;-73
2022/04/23 04:27:38;;;;;;;;;18.80;17.80;;;;;12.25;49.30;98021.22;6317208;27;98199;-72
2022/04/23 04:34:02;;;;;;;;;19.00;16.00;;;;;12.38;48.90;98023.53;6337533;27;96476;-73
2022/04/23 04:37:07;;;;;;;;;20.00;14.33;;;;;12.43;48.60;98027.13;6296136;27;97719;-75
2022/04/23 04:40:13;;;;;;;;;17.60;15.40;;;;;12.38;48.39;98016.25;6302121;27;97104;-75
2022/04/23 04:43:16;;;;;;;;;17.00;16.00;;;;;12.62;48.21;98024.88;6297405;27;97057;-73
2022/04/23 04:46:19;;;;;;;;;16.80;14.40;;;;;12.70;48.03;98035.25;6316278;27;98571;-75
2022/04/23 04:49:23;;;;;;;;;18.00;17.00;;;;;12.74;47.92;98027.41;6298426;27;98839;-71
2022/04/23 04:52:26;;;;;;;;;20.40;18.00;;;;;12.81;47.37;98033.41;6315834;27;96991;-74
2022/04/23 04:55:36;;;;;;;;;20.00;16.00;;;;;12.91;47.46;98036.22;6322340;27;97372;-75
2022/04/23 04:58:43;;;;;;;;;18.40;16.00;;;;;12.92;47.04;98022.44;6308376;27;98566;-73
2022/04/23 05:01:46;;;;;;;;;20.00;17.00;;;;;13.10;46.96;98039.34;6331541;27;97838;-75
2022/04/23 05:04:50;;;;;;;;;19.00;14.00;;;;;13.20;46.62;98039.47;6336448;27;97320;-71
2022/04/23 05:07:53;;;;;;;;;22.40;17.40;;;;;13.34;45.97;98046.88;6297997;27;97041;-72
2022/04/23 05:11:00;;;;;;;;;20.20;17.80;;;;;13.47;46.28;98040.22;6317181;27;96647;-72
2022/04/23 05:14:04;;;;;;;;;19.00;16.60;;;;;13.62;45.72;98044.91;6298940;27;96309;-72
2022/04/23 05:17:07;;;;;;;;;22.00;18.00;;;;;13.76;45.29;98051.50;6315647;27;96437;-74
2022/04/23 05:20:12;;;;;;;;;21.40;19.00;;;;;13.67;45.10;98010.56;6283280;27;96654;-72
2022/04/23 05:23:15;;;;;;;;;23.60;21.00;;;;;14.03;44.67;98045.94;6316435;27;96302;-72
2022/04/23 05:26:20;;;;;;;;;22.80;20.20;;;;;14.17;44.66;98049.81;6340104;27;97032;-73
2022/04/23 05:29:23;;;;;;;;;20.00;19.00;;;;;14.35;44.00;98048.50;6325785;27;97131;-73
2022/04/23 05:32:26;;;;;;;;;18.60;15.60;;;;;14.43;43.61;98051.53;6283661;27;100649;-76
2022/04/23 05:35:31;;;;;;;;;19.20;17.80;;;;;14.61;43.46;98047.53;6316772;27;96855;-73
2022/04/23 05:38:35;;;;;;;;;20.25;17.00;;;;;14.70;43.07;98045.94;6317945;27;96803;-76
2022/04/23 05:41:40;;;;;;;;;22.00;18.60;;;;;14.89;42.72;98046.22;6295167;27;98481;-74
2022/04/23 05:44:43;;;;;;;;;20.00;18.00;;;;;14.76;42.12;98011.50;6296142;27;97104;-76
2022/04/23 05:47:47;;;;;;;;;21.00;18.00;;;;;14.99;41.86;98049.78;6304047;27;96698;-76
2022/04/23 05:50:56;;;;;;;;;21.60;19.00;;;;;15.03;41.58;98050.03;6304283;27;98597;-71
2022/04/23 05:53:59;;;;;;;;;20.60;18.00;;;;;15.01;41.39;98039.44;6339603;27;97502;-75
2022/04/23 05:57:08;;;;;;;;;20.00;16.00;;;;;14.90;41.34;98037.81;6319697;27;97781;-75
2022/04/23 06:00:12;;;;;;;;;21.00;19.00;;;;;14.96;41.45;98042.16;6304783;27;99592;-75
2022/04/23 06:03:16;;;;;;;;;20.00;18.00;;;;;15.06;41.60;98041.34;6315732;27;98032;-75
2022/04/23 06:06:20;;;;;;;;;20.00;18.00;;;;;15.07;41.42;98023.97;6304828;27;98361;-72
2022/04/23 06:09:24;;;;;;;;;19.00;18.00;;;;;15.32;41.30;98050.31;6340882;27;96338;-71
2022/04/23 06:12:28;;;;;;;;;18.00;16.25;;;;;15.32;41.20;98017.72;6321467;27;99423;-75
2022/04/23 06:15:32;;;;;;;;;22.00;20.00;;;;;15.83;40.93;98046.44;6295687;27;97092;-73
2022/04/23 06:18:35;;;;;;;;;20.00;18.00;;;;;16.18;40.09;98050.94;6312349;27;96755;-73
2022/04/23 06:21:38;;;;;;;;;21.00;18.00;;;;;16.45;39.37;98050.56;6311728;27;96736;-75
2022/04/23 06:24:42;;;;;;;;;19.80;17.00;;;;;16.70;38.77;98053.19;6314528;27;96681;-72
2022/04/23 06:27:46;;;;;;;;;18.00;15.60;;;;;16.89;38.28;98051.44;6295609;27;99537;-73
2022/04/23 06:30:50;;;;;;;;;17.00;15.00;;;;;17.08;38.29;98062.47;6312718;27;97108;-76
2022/04/23 06:33:53;;;;;;;;;18.60;15.40;;;;;17.17;37.29;98038.97;6303609;27;98056;-73
2022/04/23 06:36:56;;;;;;;;;20.00;17.40;;;;;17.43;37.53;98047.75;6340798;27;96718;-73
2022/04/23 06:39:59;;;;;;;;;19.00;17.00;;;;;17.70;37.17;98047.22;6315199;27;96559;-71
2022/04/23 06:43:04;;;;;;;;;16.00;15.40;;;;;17.87;36.76;98052.25;6340386;27;97077;-73
2022/04/23 06:46:09;;;;;;;;;19.00;16.00;;;;;17.99;36.17;98058.91;6305431;27;97032;-76
2022/04/23 06:49:12;;;;;;;;;16.00;15.00;;;;;17.96;36.48;98039.59;6297855;27;97319;-75
2022/04/23 06:52:16;;;;;;;;;14.60;13.40;;;;;18.41;36.02;98057.34;6301780;27;97799;-72
2022/04/23 06:55:19;;;;;;;;;15.60;14.00;;;;;18.65;35.19;98057.34;6316395;27;97286;-75
2022/04/23 06:58:24;;;;;;;;;14.00;13.00;;;;;18.54;34.48;98004.78;6312916;27;98477;-75
2022/04/23 07:01:28;;;;;;;;;16.25;14.00;;;;;18.91;34.27;98055.88;6335360;27;97107;-71
2022/04/23 07:04:31;;;;;;;;;15.40;13.40;;;;;18.92;33.13;98054.75;6316502;27;97898;-71
2022/04/23 07:07:35;;;;;;;;;14.50;11.50;;;;;18.87;33.68;98036.53;6317169;27;96903;-76
2022/04/23 07:10:38;;;;;;;;;12.00;10.00;;;;;19.22;33.54;98053.47;6304344;27;97627;-72
2022/04/23 07:13:43;;;;;;;;;10.80;9.00;;;;;19.31;32.37;98052.50;6335665;27;96715;-75
2022/04/23 07:16:48;;;;;;;;;10.40;9.40;;;;;19.54;31.73;98059.00;6316630;27;97061;-73
2022/04/23 07:19:53;;;;;;;;;8.00;7.00;;;;;19.71;30.15;98061.13;6314991;27;100486;-73
2022/04/23 07:26:18;;;;;;;;;10.00;10.00;;;;;20.21;30.53;98049.25;6299979;27;97501;-71
2022/04/23 07:29:23;;;;;;;;;11.75;11.00;;;;;20.47;30.20;98046.03;6312775;27;97883;-71
2022/04/23 07:32:26;;;;;;;;;8.80;8.00;;;;;20.64;30.02;98038.78;6318034;27;97510;-74
2022/04/23 07:38:51;;;;;;;;;6.00;5.00;;;;;21.24;28.03;98035.78;6338193;27;97664;-75
2022/04/23 07:41:54;;;;;;;;;8.00;7.00;;;;;21.59;28.96;98040.38;6314036;27;96905;-77
2022/04/23 07:44:59;;;;;;;;;7.00;7.00;;;;;21.50;27.10;98005.81;6309424;27;97473;-73
2022/04/23 07:48:03;;;;;;;;;9.20;9.00;;;;;21.82;28.02;98046.63;6308686;27;97984;-75
2022/04/23 07:51:06;;;;;;;;;9.40;8.40;;;;;22.11;28.28;98040.66;6316384;27;99027;-72
2022/04/23 07:54:09;;;;;;;;;8.00;7.00;;;;;22.31;27.54;98042.81;6315552;27;96717;-75
2022/04/23 07:57:13;;;;;;;;;10.25;8.25;;;;;22.25;27.32;98041.34;6318277;27;98737;-74
2022/04/23 08:00:18;;;;;;;;;9.00;8.00;;;;;21.98;27.59;98047.88;6333653;27;96587;-77
2022/04/23 08:03:22;;;;;;;;;8.00;7.60;;;;;22.09;27.92;98048.38;6298542;27;98310;-74
2022/04/23 08:06:25;;;;;;;;;8.00;7.60;;;;;22.12;26.90;98041.47;6337473;27;97572;-74
2022/04/23 08:09:29;;;;;;;;;7.00;7.00;;;;;22.27;27.76;98043.78;6312220;27;98789;-70
2022/04/23 08:12:34;;;;;;;;;7.00;7.00;;;;;22.60;28.26;98034.00;6304827;27;98031;-70
2022/04/23 08:15:39;;;;;;;;;8.00;8.00;;;;;22.81;26.82;98024.06;6328954;27;96661;-73
2022/04/23 08:18:43;;;;;;;;;8.20;7.20;;;;;22.87;26.99;98032.97;6294164;27;99727;-68
2022/04/23 08:21:49;;;;;;;;;10.00;9.50;;;;;23.06;26.89;98021.63;6320202;27;97503;-72
2022/04/23 08:24:52;;;;;;;;;10.00;9.00;;;;;23.25;26.38;98022.91;6318742;27;98573;-68
2022/04/23 08:30:34;;;;;;;;;9.80;9.00;;;;;23.33;25.60;98026.78;6320501;27;97564;-70
2022/04/23 08:31:21;;;;;;;;;10.00;9.00;;;;;23.32;24.83;98023.22;6336459;27;97321;-68
2022/04/23 08:34:25;;;;;;;;;9.00;8.40;;;;;23.30;25.67;98014.50;6320921;27;97425;-72
2022/04/23 08:37:28;;;;;;;;;7.00;7.00;;;;;23.40;25.41;97999.59;6318097;27;98660;-69
2022/04/23 08:40:37;;;;;;;;;9.00;8.00;;;;;23.65;25.17;98011.72;6340407;27;96739;-69
2022/04/23 08:43:41;;;;;;;;;9.00;8.20;;;;;23.57;25.26;98012.53;6317734;27;97394;-69
2022/04/23 08:46:46;;;;;;;;;9.00;8.00;;;;;23.61;25.48;98013.47;6331342;27;96951;-68
2022/04/23 08:49:54;;;;;;;;;8.50;8.00;;;;;23.65;24.72;98012.50;6337356;27;96677;-68
2022/04/23 08:53:01;;;;;;;;;7.00;7.00;;;;;23.45;25.06;98001.41;6337154;27;96692;-67
2022/04/23 08:56:05;;;;;;;;;7.80;7.80;;;;;23.16;25.44;97994.63;6318593;27;97244;-71
2022/04/23 08:59:09;;;;;;;;;9.40;8.60;;;;;23.06;25.19;97985.91;6320362;27;96800;-67
2022/04/23 09:02:14;;;;;;;;;9.00;8.67;;;;;23.03;25.79;97992.84;6306207;27;97923;-73
2022/04/23 09:05:19;;;;;;;;;7.00;7.00;;;;;23.28;25.72;97996.69;6341108;27;97499;-72
2022/04/23 09:08:24;;;;;;;;;6.60;6.40;;;;;23.70;25.64;97995.03;6340678;27;97404;-75
2022/04/23 09:11:37;;;;;;;;;8.00;6.50;;;;;23.74;24.29;97977.53;6300079;27;99405;-73
2022/04/23 09:14:40;;;;;;;;;9.00;9.00;;;;;23.76;24.86;97974.44;6313480;27;97152;-73
2022/04/23 09:24:46;;;;;;;;;7.60;7.00;;;;;24.03;24.13;97981.44;6190176;28;96754;-74
2022/04/23 09:27:49;;;;;;;;;8.00;7.00;;;;;23.93;24.13;97982.63;6196150;28;97088;-74
2022/04/23 09:30:54;;;;;;;;;6.80;6.20;;;;;23.88;24.77;97979.25;6209200;28;96909;-75
2022/04/23 09:33:59;;;;;;;;;7.20;7.20;;;;;23.78;24.99;97971.34;6193949;28;96787;-75
2022/04/23 09:37:02;;;;;;;;;8.00;7.00;;;;;24.37;24.97;97978.53;6208963;28;96774;-74
2022/04/23 09:40:17;;;;;;;;;7.00;6.00;;;;;24.95;25.27;97979.59;6210551;28;96695;-76
2022/04/23 09:43:29;;;;;;;;;7.80;7.00;;;;;25.34;23.85;97976.31;6207669;28;97573;-74
2022/04/23 09:46:45;;;;;;;;;6.60;6.00;;;;;25.16;22.38;97965.78;6195692;28;97093;-73
2022/04/23 09:50:15;;;;;;;;;6.00;6.00;;;;;24.63;22.83;97969.28;6176719;28;96576;-76
2022/04/23 09:53:20;;;;;;;;;7.75;7.00;;;;;24.70;23.53;97980.56;6198055;28;98898;-76
2022/04/23 09:56:25;;;;;;;;;8.00;7.00;;;;;24.99;24.53;97977.78;6210119;28;96809;-75
2022/04/23 09:59:29;;;;;;;;;7.00;6.50;;;;;25.47;23.54;97979.91;6190504;28;99037;-73
2022/04/23 10:02:33;;;;;;;;;6.00;6.00;;;;;25.92;23.26;97971.63;6306307;27;97173;-74
2022/04/23 10:05:41;;;;;;;;;6.40;6.00;;;;;26.33;22.28;97975.34;6296126;27;96878;-73
2022/04/23 10:08:49;;;;;;;;;5.00;5.00;;;;;26.43;22.11;97967.41;6315314;27;96577;-74
2022/04/23 10:11:58;;;;;;;;;6.00;6.00;;;;;26.62;22.06;97978.66;6279365;27;96596;-76
2022/04/23 10:15:03;;;;;;;;;7.00;7.00;;;;;26.53;21.32;97972.44;6314579;27;97468;-75
2022/04/23 10:18:09;;;;;;;;;8.00;7.00;;;;;26.04;22.07;97963.34;6328393;27;97977;-74
2022/04/23 10:21:21;;;;;;;;;7.60;7.00;;;;;25.90;21.73;97967.59;6287082;27;99615;-74
2022/04/23 10:24:32;;;;;;;;;7.25;7.00;;;;;26.11;21.66;97969.09;6309897;27;98937;-75
2022/04/23 10:27:37;;;;;;;;;5.50;5.50;;;;;26.09;21.68;97951.28;6339329;27;97570;-74
2022/04/23 10:30:40;;;;;;;;;7.00;6.25;;;;;26.41;21.33;97966.09;6296836;27;96326;-73
2022/04/23 10:33:46;;;;;;;;;5.60;5.00;;;;;26.56;21.48;97948.81;6312403;27;97422;-73
2022/04/23 10:37:14;;;;;;;;;6.00;6.00;;;;;26.99;21.72;97968.31;6295514;27;98636;-75
2022/04/23 10:40:18;;;;;;;;;7.50;7.00;;;;;27.00;21.31;97961.63;6295276;27;97031;-72
2022/04/23 10:43:26;;;;;;;;;7.50;6.00;;;;;26.96;21.31;97976.50;6295691;27;96412;-76
2022/04/23 10:46:49;;;;;;;;;7.00;6.40;;;;;26.65;20.90;97968.84;6302162;27;98488;-74
2022/04/23 10:50:31;;;;;;;;;6.00;6.00;;;;;26.21;21.54;97941.03;6331548;27;97880;-75
2022/04/23 10:53:54;;;;;;;;;6.00;5.00;;;;;25.98;21.78;97916.97;6291958;27;100050;-74
2022/04/23 10:57:06;;;;;;;;;7.00;6.40;;;;;25.93;21.72;97936.53;6317456;27;98552;-73
2022/04/23 11:00:16;;;;;;;;;5.00;4.25;;;;;25.94;22.18;97971.28;6335699;27;96606;-74
2022/04/23 11:03:28;;;;;;;;;6.60;6.60;;;;;25.67;21.85;97962.50;6339009;27;97480;-72
2022/04/23 11:13:50;;;;;;;;;6.60;6.00;;;;;26.17;21.97;97918.00;6276932;27;96499;-73
2022/04/23 11:16:54;;;;;;;;;7.00;6.40;;;;;26.80;21.73;97961.78;6277188;27;97251;-76
2022/04/23 11:19:58;;;;;;;;;8.00;7.50;;;;;27.27;20.97;97957.22;6294839;27;96866;-74
2022/04/23 11:23:04;;;;;;;;;7.67;7.33;;;;;27.54;20.87;97961.16;6295281;27;96907;-75
2022/04/23 11:26:11;;;;;;;;;5.80;5.80;;;;;27.37;20.65;97947.59;6331044;27;97085;-73
2022/04/23 11:29:15;;;;;;;;;9.00;8.00;;;;;27.43;20.78;97948.97;6321089;27;96771;-76
2022/04/23 11:32:26;;;;;;;;;9.00;7.25;;;;;27.37;21.60;97947.59;6321195;27;98069;-76
2022/04/23 11:35:30;;;;;;;;;7.00;6.00;;;;;27.10;21.10;97929.88;6303712;27;98635;-73
2022/04/23 11:38:34;;;;;;;;;6.00;6.00;;;;;26.99;21.22;97946.19;6320518;27;97824;-76
2022/04/23 11:41:40;;;;;;;;;6.00;6.00;;;;;26.72;21.40;97939.44;6339459;27;96431;-75
2022/04/23 11:44:50;;;;;;;;;6.60;6.60;;;;;26.59;21.08;97943.38;6320153;27;97992;-76
2022/04/23 11:47:54;;;;;;;;;8.00;7.00;;;;;26.29;21.32;97931.81;6340358;27;97238;-74
2022/04/23 11:51:06;;;;;;;;;9.00;8.00;;;;;26.17;21.86;97942.03;6320965;27;98738;-74
2022/04/23 11:54:09;;;;;;;;;7.75;7.00;;;;;26.32;21.75;97921.22;6338788;27;96670;-76
2022/04/23 11:57:15;;;;;;;;;7.20;6.80;;;;;26.34;21.24;97936.28;6329993;27;96598;-72
2022/04/23 12:00:21;;;;;;;;;7.00;7.00;;;;;26.29;21.36;97947.59;6294524;27;99415;-72
2022/04/23 12:03:26;;;;;;;;;10.00;9.00;;;;;26.01;21.58;97941.94;6277076;27;98417;-72
2022/04/23 12:06:42;;;;;;;;;8.40;8.40;;;;;26.05;22.12;97942.84;6332504;27;96397;-76
2022/04/23 12:09:47;;;;;;;;;8.00;7.00;;;;;26.39;22.24;97938.81;6338960;27;97418;-73
2022/04/23 12:12:52;;;;;;;;;10.00;9.00;;;;;26.82;20.63;97937.34;6328903;27;98184;-76
2022/04/23 12:15:55;;;;;;;;;9.00;9.00;;;;;27.13;20.81;97934.69;6320218;27;96728;-73
2022/04/23 12:19:00;;;;;;;;;9.25;9.00;;;;;26.98;21.11;97943.75;6339056;27;97477;-75
2022/04/23 12:22:04;;;;;;;;;7.60;7.00;;;;;26.93;21.36;97935.69;6302565;27;96688;-73
2022/04/23 12:25:10;;;;;;;;;7.00;6.60;;;;;27.17;21.85;97925.34;6309607;27;98001;-73
2022/04/23 12:41:55;;;;;;;;;8.40;8.00;;;;;28.02;20.20;97915.69;6294446;27;98402;-74
2022/04/23 12:44:59;;;;;;;;;31.40;29.80;;;;;27.58;19.42;97918.56;6311260;27;96470;-76
2022/04/23 12:48:06;;;;;;;;;14.00;13.00;;;;;27.13;20.21;97920.88;6311104;27;97600;-75
2022/04/23 12:51:09;;;;;;;;;8.80;7.80;;;;;26.88;20.91;97913.84;6293431;27;97412;-75
2022/04/23 12:54:13;;;;;;;;;8.40;8.00;;;;;26.66;20.36;97907.66;6335914;27;97480;-74
2022/04/23 12:57:17;;;;;;;;;9.00;9.00;;;;;26.46;21.06;97911.41;6319172;27;99421;-76
2022/04/23 13:00:23;;;;;;;;;8.00;7.00;;;;;26.20;20.91;97909.00;6302357;27;100078;-76
2022/04/23 13:03:37;;;;;;;;;6.75;5.75;;;;;25.94;21.32;97888.44;6310624;27;96861;-74
2022/04/23 13:10:01;;;;;;;;;9.00;8.00;;;;;25.79;21.25;97904.56;6322873;27;96491;-74
2022/04/23 13:13:07;;;;;;;;;9.00;8.00;;;;;25.63;21.64;97894.53;6321971;27;98259;-73
2022/04/23 13:16:12;;;;;;;;;7.75;7.75;;;;;25.47;21.99;97899.88;6342097;27;97998;-74
2022/04/23 13:19:16;;;;;;;;;8.00;7.60;;;;;25.18;22.53;97900.03;6305580;27;98544;-74
2022/04/23 13:22:19;;;;;;;;;11.00;10.00;;;;;24.98;22.41;97901.69;6317933;27;96835;-72
2022/04/23 13:25:23;;;;;;;;;7.20;7.00;;;;;24.78;23.39;97897.00;6319318;27;98920;-73
2022/04/23 13:28:27;;;;;;;;;9.60;8.00;;;;;24.53;23.51;97896.09;6315913;27;96886;-73
2022/04/23 13:31:32;;;;;;;;;12.20;11.00;;;;;24.36;23.75;97893.47;6314600;27;97848;-76
2022/04/23 13:34:35;;;;;;;;;9.00;8.40;;;;;24.26;23.72;97902.13;6315738;27;96754;-73
2022/04/23 13:37:38;;;;;;;;;10.00;9.00;;;;;24.25;23.52;97895.81;6314436;27;97760;-77
2022/04/23 13:40:42;;;;;;;;;9.00;8.50;;;;;24.54;23.65;97892.19;6317163;27;97430;-74
2022/04/23 13:43:46;;;;;;;;;10.50;10.00;;;;;24.43;23.05;97880.78;6292300;27;96992;-75
2022/04/23 13:46:51;;;;;;;;;10.40;9.40;;;;;24.41;23.32;97896.03;6314456;27;97526;-75
2022/04/23 13:49:55;;;;;;;;;8.00;7.25;;;;;24.25;23.20;97890.28;6303499;27;98276;-74
2022/04/23 13:52:58;;;;;;;;;8.00;7.00;;;;;24.07;23.24;97889.59;6327343;27;96381;-75
2022/04/23 13:56:02;;;;;;;;;11.00;9.25;;;;;23.84;23.95;97891.03;6320384;27;96608;-76
2022/04/23 13:59:05;;;;;;;;;9.00;7.20;;;;;23.67;24.27;97896.59;6312590;27;100164;-76
2022/04/23 14:12:13;;;;;;;;;8.40;8.00;;;;;23.13;25.26;97885.28;6345487;27;97137;-73
2022/04/23 14:15:17;;;;;;;;;8.60;8.60;;;;;23.21;24.83;97886.41;6317378;27;97029;-74
2022/04/23 14:18:21;;;;;;;;;8.80;8.20;;;;;23.12;24.77;97883.66;6296493;27;97842;-75
2022/04/23 14:21:25;;;;;;;;;11.00;9.50;;;;;22.96;24.82;97854.28;6313756;27;96465;-76
2022/04/23 14:24:28;;;;;;;;;10.00;10.00;;;;;23.04;25.12;97890.00;6299067;27;97289;-75
2022/04/23 14:27:32;;;;;;;;;9.75;8.75;;;;;23.02;24.50;97896.97;6291608;27;97109;-75
2022/04/23 14:30:36;;;;;;;;;11.00;9.50;;;;;22.89;24.58;97901.50;6306074;27;97485;-73
2022/04/23 14:33:40;;;;;;;;;9.00;8.75;;;;;22.78;25.13;97891.97;6312875;27;96695;-75
2022/04/23 14:36:44;;;;;;;;;10.00;9.60;;;;;22.78;25.34;97897.47;6295829;27;96660;-76
2022/04/23 14:39:47;;;;;;;;;10.00;8.20;;;;;22.80;25.74;97889.72;6296401;27;98734;-77
2022/04/23 14:42:52;;;;;;;;;8.00;7.25;;;;;22.84;26.14;97893.44;6304584;27;96754;-75
2022/04/23 14:45:56;;;;;;;;;8.00;8.00;;;;;22.91;25.90;97902.00;6298531;27;97468;-74
2022/04/23 14:49:01;;;;;;;;;8.25;8.00;;;;;22.72;25.73;97894.09;6300886;27;96637;-75
2022/04/23 14:55:27;;;;;;;;;6.00;6.00;;;;;22.57;26.07;97886.31;6301216;27;96651;-74
2022/04/23 14:58:30;;;;;;;;;9.40;9.00;;;;;22.24;26.33;97846.72;6308441;27;96591;-77
2022/04/23 15:01:34;;;;;;;;;8.00;8.00;;;;;22.39;26.72;97895.66;6295148;27;97531;-74
2022/04/23 15:04:39;;;;;;;;;9.00;9.00;;;;;22.40;26.56;97903.59;6289531;27;97648;-75
2022/04/23 15:07:45;;;;;;;;;7.00;6.50;;;;;22.28;26.33;97913.63;6304875;27;96583;-73
2022/04/23 15:10:48;;;;;;;;;9.25;8.25;;;;;22.38;26.90;97918.78;6313784;27;97533;-76
2022/04/23 15:13:52;;;;;;;;;8.50;8.50;;;;;22.22;26.52;97921.19;6313255;27;96856;-73